Millwall — A8XQ8 — position and weather

sailwx.info

Track history (hours):
 
Tides and Currents Weather Stations Pressure Air Temp Water Temp Dewpoint Dewpoint Depression Visibility Wind Speed Wind Dir Waves Ship Positions

Millwall

Last reported at 2017-Sep-04 04:14 UTC. Time now 2017-Sep-21 12:25 UTC.
Position N 31°22' E 032°23'.
Warning: this ship's position is 17 days out of date.

Length 188 m; draft 13 m.

Type: Cargo ship. MMSI: 636017690.

Date/timePositionNaut miles runAvg speedWind from/ knotsBaromVisibWave heightAir tempDewpointWater temp
2017-Sep-04 04:14N 31°22' E 032°23'1 6.3
2017-Sep-04 04:01N 31°23' E 032°24'3 6.7
2017-Sep-04 03:31N 31°26' E 032°22'4 7.0
2017-Sep-04 03:01N 31°25' E 032°18'1 1.1
2017-Sep-04 02:29N 31°24' E 032°18'0 0.0
2017-Sep-04 01:53N 31°24' E 032°18'0 0.0
2017-Sep-04 01:11N 31°24' E 032°18'0 0.0
2017-Sep-04 00:59N 31°24' E 032°18'0 0.0
2017-Sep-04 00:14N 31°24' E 032°18'0 0.0
2017-Sep-03 23:59N 31°24' E 032°18'0 0.0
2017-Sep-03 23:29N 31°24' E 032°18'0 0.0
2017-Sep-03 22:59N 31°24' E 032°18'0 0.0
2017-Sep-03 22:29N 31°24' E 032°18'0 0.0
2017-Sep-03 21:14N 31°24' E 032°18'0 0.0
2017-Sep-03 20:56N 31°24' E 032°18'0 0.0
2017-Sep-03 20:26N 31°24' E 032°18'0 0.0
2017-Sep-03 19:59N 31°24' E 032°18'0 0.0
2017-Sep-03 19:29N 31°24' E 032°18'20 4.3
2017-Sep-03 14:54N 31°40' E 032°03'1313.4
2017-Sep-03 13:57N 31°49' E 031°53'1513.4
2017-Sep-03 12:51N 31°60' E 031°41'2513.5
2017-Sep-03 11:00N 32°18' E 031°21'713.9
2017-Sep-03 10:30N 32°23' E 031°16'1313.9
2017-Sep-03 09:36N 32°33' E 031°06'5413.5
2017-Sep-03 05:38N 33°12' E 030°23'213.5
2017-Sep-03 05:30N 33°14' E 030°21'12513.4
2017-Sep-02 20:10N 34°46' E 028°40'313.1
2017-Sep-02 19:57N 34°48' E 028°37'613.1
2017-Sep-02 19:30N 34°53' E 028°33'1113.2
2017-Sep-02 18:43N 35°00' E 028°24'18513.5
2017-Sep-02 04:58N 37°21' E 025°55'613.3
2017-Sep-02 04:31N 37°26' E 025°51'713.2
2017-Sep-02 04:00N 37°32' E 025°47'713.3
2017-Sep-02 03:30N 37°38' E 025°43'613.2
2017-Sep-02 03:01N 37°44' E 025°39'713.2
2017-Sep-02 02:30N 37°50' E 025°37'5613.0
2017-Sep-01 22:12N 38°46' E 025°27'5513.6
2017-Sep-01 18:12N 39°39' E 025°43'913.6
2017-Sep-01 17:31N 39°48' E 025°45'113.8
2017-Sep-01 17:26N 39°49' E 025°45'713.7
2017-Sep-01 16:55N 39°55' E 025°50'440 8.5
2017-Aug-30 13:21N 46°15' E 030°54'412.7
2017-Aug-30 13:00N 46°19' E 030°55'612.7
2017-Aug-30 12:30N 46°26' E 030°55'611.2
2017-Aug-30 12:00N 46°31' E 030°56'  
2017-Aug-28 04:37N 46°33' E 031°06'0 0.5
2017-Aug-28 04:31N 46°33' E 031°06'0 0.3
2017-Aug-28 04:00N 46°33' E 031°06'1 1.9
2017-Aug-28 03:30N 46°34' E 031°06'2 4.5
2017-Aug-28 03:01N 46°34' E 031°03'2 4.1
2017-Aug-28 02:30N 46°36' E 031°01'3 1.3
2017-Aug-28 00:16N 46°39' E 031°01'0 0.0
2017-Aug-27 23:58N 46°39' E 031°01'0 0.0
2017-Aug-27 23:25N 46°39' E 031°01'0 0.0
2017-Aug-27 22:58N 46°39' E 031°01'0 0.0
2017-Aug-27 22:25N 46°39' E 031°01'0 0.0
2017-Aug-27 21:55N 46°39' E 031°01'0 0.0
2017-Aug-27 21:07N 46°39' E 031°01'0 0.0
2017-Aug-27 20:58N 46°39' E 031°01'0 0.0
2017-Aug-27 20:28N 46°39' E 031°01'0 0.0
2017-Aug-27 19:58N 46°39' E 031°01'0 0.0
2017-Aug-27 19:28N 46°39' E 031°01'0 0.0
2017-Aug-27 18:58N 46°39' E 031°01'0 0.0
2017-Aug-27 18:28N 46°39' E 031°01'0 0.0
2017-Aug-27 17:55N 46°39' E 031°01'0 0.0
2017-Aug-27 17:19N 46°39' E 031°01'0 0.0
2017-Aug-27 16:55N 46°39' E 031°01'0 0.0
2017-Aug-26 19:49N 46°39' E 031°01'0 0.0
2017-Aug-26 18:49N 46°39' E 031°01'0 0.0
2017-Aug-26 03:48N 46°39' E 031°01'1 2.0
2017-Aug-26 03:30N 46°38' E 031°01'3 6.2
2017-Aug-26 03:01N 46°35' E 031°01'2 3.9
2017-Aug-26 02:30N 46°34' E 031°03'1 1.6
2017-Aug-26 02:00N 46°35' E 031°03'0 0.1
2017-Aug-26 00:06N 46°35' E 031°04'0 0.0
2017-Aug-26 00:00N 46°35' E 031°04'0 0.0
2017-Aug-25 23:30N 46°35' E 031°04'0 0.0
2017-Aug-25 23:00N 46°35' E 031°04'0 0.0
2017-Aug-25 22:30N 46°35' E 031°04'0 0.0
2017-Aug-25 19:45N 46°35' E 031°04'0 0.0
2017-Aug-25 19:30N 46°35' E 031°04'0 0.0
2017-Aug-25 19:00N 46°35' E 031°04'0 0.0
2017-Aug-25 18:30N 46°35' E 031°04'0 0.0
2017-Aug-25 18:00N 46°35' E 031°04'0 0.0
2017-Aug-25 17:30N 46°35' E 031°04'0 0.0
2017-Aug-25 17:00N 46°35' E 031°04'0 0.0
2017-Aug-25 07:33N 46°35' E 031°04'0 0.0
2017-Aug-25 07:30N 46°35' E 031°04'0 0.0
2017-Aug-25 06:51N 46°35' E 031°04'0 0.0
2017-Aug-25 06:18N 46°35' E 031°04'0 0.0
2017-Aug-25 06:00N 46°35' E 031°04'0 0.0
2017-Aug-25 05:30N 46°35' E 031°04'0 0.0
2017-Aug-25 05:00N 46°35' E 031°04'0 0.0
2017-Aug-25 04:30N 46°35' E 031°04'  
Track history (hours):
 
Tides and Currents Weather Stations Pressure Air Temp Water Temp Dewpoint Dewpoint Depression Visibility Wind Speed Wind Dir Waves Ship Positions

Millwall

Last reported at 2017-Sep-04 04:14 UTC. Time now 2017-Sep-21 12:25 UTC.
Position N 31°22' E 032°23'.
Warning: this ship's position is 17 days out of date.

Length 188 m; draft 13 m.

Type: Cargo ship. MMSI: 636017690.

Date/timePositionNaut miles runAvg speedWind from/ knotsBaromVisibWave heightAir tempDewpointWater temp
2017-Sep-04 04:14N 31°22' E 032°23'1 6.3
2017-Sep-04 04:01N 31°23' E 032°24'3 6.7
2017-Sep-04 03:31N 31°26' E 032°22'4 7.0
2017-Sep-04 03:01N 31°25' E 032°18'1 1.1
2017-Sep-04 02:29N 31°24' E 032°18'0 0.0
2017-Sep-04 01:53N 31°24' E 032°18'0 0.0
2017-Sep-04 01:11N 31°24' E 032°18'0 0.0
2017-Sep-04 00:59N 31°24' E 032°18'0 0.0
2017-Sep-04 00:14N 31°24' E 032°18'0 0.0
2017-Sep-03 23:59N 31°24' E 032°18'0 0.0
2017-Sep-03 23:29N 31°24' E 032°18'0 0.0
2017-Sep-03 22:59N 31°24' E 032°18'0 0.0
2017-Sep-03 22:29N 31°24' E 032°18'0 0.0
2017-Sep-03 21:14N 31°24' E 032°18'0 0.0
2017-Sep-03 20:56N 31°24' E 032°18'0 0.0
2017-Sep-03 20:26N 31°24' E 032°18'0 0.0
2017-Sep-03 19:59N 31°24' E 032°18'0 0.0
2017-Sep-03 19:29N 31°24' E 032°18'20 4.3
2017-Sep-03 14:54N 31°40' E 032°03'1313.4
2017-Sep-03 13:57N 31°49' E 031°53'1513.4
2017-Sep-03 12:51N 31°60' E 031°41'2513.5
2017-Sep-03 11:00N 32°18' E 031°21'713.9
2017-Sep-03 10:30N 32°23' E 031°16'1313.9
2017-Sep-03 09:36N 32°33' E 031°06'5413.5
2017-Sep-03 05:38N 33°12' E 030°23'213.5
2017-Sep-03 05:30N 33°14' E 030°21'12513.4
2017-Sep-02 20:10N 34°46' E 028°40'313.1
2017-Sep-02 19:57N 34°48' E 028°37'613.1
2017-Sep-02 19:30N 34°53' E 028°33'1113.2
2017-Sep-02 18:43N 35°00' E 028°24'18513.5
2017-Sep-02 04:58N 37°21' E 025°55'613.3
2017-Sep-02 04:31N 37°26' E 025°51'713.2
2017-Sep-02 04:00N 37°32' E 025°47'713.3
2017-Sep-02 03:30N 37°38' E 025°43'613.2
2017-Sep-02 03:01N 37°44' E 025°39'713.2
2017-Sep-02 02:30N 37°50' E 025°37'5613.0
2017-Sep-01 22:12N 38°46' E 025°27'5513.6
2017-Sep-01 18:12N 39°39' E 025°43'913.6
2017-Sep-01 17:31N 39°48' E 025°45'113.8
2017-Sep-01 17:26N 39°49' E 025°45'713.7
2017-Sep-01 16:55N 39°55' E 025°50'440 8.5
2017-Aug-30 13:21N 46°15' E 030°54'412.7
2017-Aug-30 13:00N 46°19' E 030°55'612.7
2017-Aug-30 12:30N 46°26' E 030°55'611.2
2017-Aug-30 12:00N 46°31' E 030°56'  
2017-Aug-28 04:37N 46°33' E 031°06'0 0.5
2017-Aug-28 04:31N 46°33' E 031°06'0 0.3
2017-Aug-28 04:00N 46°33' E 031°06'1 1.9
2017-Aug-28 03:30N 46°34' E 031°06'2 4.5
2017-Aug-28 03:01N 46°34' E 031°03'2 4.1
2017-Aug-28 02:30N 46°36' E 031°01'3 1.3
2017-Aug-28 00:16N 46°39' E 031°01'0 0.0
2017-Aug-27 23:58N 46°39' E 031°01'0 0.0
2017-Aug-27 23:25N 46°39' E 031°01'0 0.0
2017-Aug-27 22:58N 46°39' E 031°01'0 0.0
2017-Aug-27 22:25N 46°39' E 031°01'0 0.0
2017-Aug-27 21:55N 46°39' E 031°01'0 0.0
2017-Aug-27 21:07N 46°39' E 031°01'0 0.0
2017-Aug-27 20:58N 46°39' E 031°01'0 0.0
2017-Aug-27 20:28N 46°39' E 031°01'0 0.0
2017-Aug-27 19:58N 46°39' E 031°01'0 0.0
2017-Aug-27 19:28N 46°39' E 031°01'0 0.0
2017-Aug-27 18:58N 46°39' E 031°01'0 0.0
2017-Aug-27 18:28N 46°39' E 031°01'0 0.0
2017-Aug-27 17:55N 46°39' E 031°01'0 0.0
2017-Aug-27 17:19N 46°39' E 031°01'0 0.0
2017-Aug-27 16:55N 46°39' E 031°01'0 0.0
2017-Aug-26 19:49N 46°39' E 031°01'0 0.0
2017-Aug-26 18:49N 46°39' E 031°01'0 0.0
2017-Aug-26 03:48N 46°39' E 031°01'1 2.0
2017-Aug-26 03:30N 46°38' E 031°01'3 6.2
2017-Aug-26 03:01N 46°35' E 031°01'2 3.9
2017-Aug-26 02:30N 46°34' E 031°03'1 1.6
2017-Aug-26 02:00N 46°35' E 031°03'0 0.1
2017-Aug-26 00:06N 46°35' E 031°04'0 0.0
2017-Aug-26 00:00N 46°35' E 031°04'0 0.0
2017-Aug-25 23:30N 46°35' E 031°04'0 0.0
2017-Aug-25 23:00N 46°35' E 031°04'0 0.0
2017-Aug-25 22:30N 46°35' E 031°04'0 0.0
2017-Aug-25 19:45N 46°35' E 031°04'0 0.0
2017-Aug-25 19:30N 46°35' E 031°04'0 0.0
2017-Aug-25 19:00N 46°35' E 031°04'0 0.0
2017-Aug-25 18:30N 46°35' E 031°04'0 0.0
2017-Aug-25 18:00N 46°35' E 031°04'0 0.0
2017-Aug-25 17:30N 46°35' E 031°04'0 0.0
2017-Aug-25 17:00N 46°35' E 031°04'0 0.0
2017-Aug-25 07:33N 46°35' E 031°04'0 0.0
2017-Aug-25 07:30N 46°35' E 031°04'0 0.0
2017-Aug-25 06:51N 46°35' E 031°04'0 0.0
2017-Aug-25 06:18N 46°35' E 031°04'0 0.0
2017-Aug-25 06:00N 46°35' E 031°04'0 0.0
2017-Aug-25 05:30N 46°35' E 031°04'0 0.0
2017-Aug-25 05:00N 46°35' E 031°04'0 0.0
2017-Aug-25 04:30N 46°35' E 031°04'  

Dump ship's entire track history